sensor_id;sensor_type;location;lat;lon;timestamp;P1;durP1;ratioP1;P2;durP2;ratioP2
64894;SDS011;51588;53.702;10.208;2023-03-01T00:01:00;6.33;;;5.60;;
64894;SDS011;51588;53.702;10.208;2023-03-01T00:03:33;9.37;;;5.70;;
64894;SDS011;51588;53.702;10.208;2023-03-01T00:05:59;6.90;;;5.37;;
64894;SDS011;51588;53.702;10.208;2023-03-01T00:08:26;7.30;;;5.63;;
64894;SDS011;51588;53.702;10.208;2023-03-01T00:10:59;6.60;;;5.50;;
64894;SDS011;51588;53.702;10.208;2023-03-01T00:13:26;6.47;;;5.83;;
64894;SDS011;51588;53.702;10.208;2023-03-01T00:15:56;8.30;;;6.13;;
64894;SDS011;51588;53.702;10.208;2023-03-01T00:18:23;6.90;;;5.70;;
64894;SDS011;51588;53.702;10.208;2023-03-01T00:20:49;7.93;;;6.00;;
64894;SDS011;51588;53.702;10.208;2023-03-01T00:23:16;7.50;;;6.00;;
64894;SDS011;51588;53.702;10.208;2023-03-01T00:25:45;8.60;;;5.53;;
64894;SDS011;51588;53.702;10.208;2023-03-01T00:28:12;8.43;;;6.03;;
64894;SDS011;51588;53.702;10.208;2023-03-01T00:30:45;7.47;;;6.10;;
64894;SDS011;51588;53.702;10.208;2023-03-01T00:33:12;7.23;;;5.57;;
64894;SDS011;51588;53.702;10.208;2023-03-01T00:35:39;6.93;;;5.50;;
64894;SDS011;51588;53.702;10.208;2023-03-01T00:38:05;7.13;;;5.27;;
64894;SDS011;51588;53.702;10.208;2023-03-01T00:40:33;7.73;;;5.50;;
64894;SDS011;51588;53.702;10.208;2023-03-01T00:42:59;8.20;;;6.40;;
64894;SDS011;51588;53.702;10.208;2023-03-01T00:45:26;6.77;;;5.57;;
64894;SDS011;51588;53.702;10.208;2023-03-01T00:47:53;7.80;;;6.40;;
64894;SDS011;51588;53.702;10.208;2023-03-01T00:50:21;7.00;;;5.80;;
64894;SDS011;51588;53.702;10.208;2023-03-01T00:52:51;8.10;;;5.90;;
64894;SDS011;51588;53.702;10.208;2023-03-01T00:55:18;7.87;;;6.50;;
64894;SDS011;51588;53.702;10.208;2023-03-01T00:57:44;7.70;;;5.87;;
64894;SDS011;51588;53.702;10.208;2023-03-01T01:00:11;7.67;;;6.37;;
64894;SDS011;51588;53.702;10.208;2023-03-01T01:02:40;8.53;;;6.70;;
64894;SDS011;51588;53.702;10.208;2023-03-01T01:05:06;8.90;;;6.87;;
64894;SDS011;51588;53.702;10.208;2023-03-01T01:07:35;9.20;;;6.70;;
64894;SDS011;51588;53.702;10.208;2023-03-01T01:10:01;9.50;;;6.40;;
64894;SDS011;51588;53.702;10.208;2023-03-01T01:12:28;7.90;;;6.20;;
64894;SDS011;51588;53.702;10.208;2023-03-01T01:14:56;7.70;;;6.30;;
64894;SDS011;51588;53.702;10.208;2023-03-01T01:17:23;7.73;;;6.17;;
64894;SDS011;51588;53.702;10.208;2023-03-01T01:19:49;8.03;;;6.10;;
64894;SDS011;51588;53.702;10.208;2023-03-01T01:22:16;7.33;;;6.13;;
64894;SDS011;51588;53.702;10.208;2023-03-01T01:24:44;6.67;;;5.97;;
64894;SDS011;51588;53.702;10.208;2023-03-01T01:27:10;8.13;;;6.17;;
64894;SDS011;51588;53.702;10.208;2023-03-01T01:29:45;9.47;;;7.00;;
64894;SDS011;51588;53.702;10.208;2023-03-01T01:32:11;9.30;;;6.03;;
64894;SDS011;51588;53.702;10.208;2023-03-01T01:34:38;8.30;;;6.00;;
64894;SDS011;51588;53.702;10.208;2023-03-01T01:37:04;8.10;;;6.63;;
64894;SDS011;51588;53.702;10.208;2023-03-01T01:39:33;6.93;;;6.00;;
64894;SDS011;51588;53.702;10.208;2023-03-01T01:42:01;7.60;;;5.80;;
64894;SDS011;51588;53.702;10.208;2023-03-01T01:44:30;7.57;;;5.73;;
64894;SDS011;51588;53.702;10.208;2023-03-01T01:47:00;7.50;;;6.50;;
64894;SDS011;51588;53.702;10.208;2023-03-01T01:49:28;7.10;;;6.40;;
64894;SDS011;51588;53.702;10.208;2023-03-01T01:52:07;7.10;;;5.93;;
64894;SDS011;51588;53.702;10.208;2023-03-01T01:54:38;9.53;;;6.37;;
64894;SDS011;51588;53.702;10.208;2023-03-01T01:57:08;7.17;;;6.30;;
64894;SDS011;51588;53.702;10.208;2023-03-01T01:59:37;8.20;;;6.60;;
64894;SDS011;51588;53.702;10.208;2023-03-01T02:02:04;7.13;;;5.87;;
64894;SDS011;51588;53.702;10.208;2023-03-01T02:04:31;8.20;;;6.27;;
64894;SDS011;51588;53.702;10.208;2023-03-01T02:06:59;6.33;;;5.50;;
64894;SDS011;51588;53.702;10.208;2023-03-01T02:09:28;8.00;;;6.00;;
64894;SDS011;51588;53.702;10.208;2023-03-01T02:11:56;7.97;;;6.20;;
64894;SDS011;51588;53.702;10.208;2023-03-01T02:14:24;7.93;;;5.77;;
64894;SDS011;51588;53.702;10.208;2023-03-01T02:16:51;6.70;;;6.00;;
64894;SDS011;51588;53.702;10.208;2023-03-01T02:19:20;6.60;;;5.93;;
64894;SDS011;51588;53.702;10.208;2023-03-01T02:21:53;7.80;;;6.13;;
64894;SDS011;51588;53.702;10.208;2023-03-01T02:24:23;7.83;;;5.90;;
64894;SDS011;51588;53.702;10.208;2023-03-01T02:26:54;7.90;;;5.93;;
64894;SDS011;51588;53.702;10.208;2023-03-01T02:29:22;6.13;;;5.53;;
64894;SDS011;51588;53.702;10.208;2023-03-01T02:31:49;6.93;;;5.80;;
64894;SDS011;51588;53.702;10.208;2023-03-01T02:34:18;6.50;;;5.80;;
64894;SDS011;51588;53.702;10.208;2023-03-01T02:36:45;6.23;;;5.40;;
64894;SDS011;51588;53.702;10.208;2023-03-01T02:39:14;6.40;;;5.53;;
64894;SDS011;51588;53.702;10.208;2023-03-01T02:41:44;8.13;;;6.10;;
64894;SDS011;51588;53.702;10.208;2023-03-01T02:44:11;8.40;;;5.80;;
64894;SDS011;51588;53.702;10.208;2023-03-01T02:46:43;7.17;;;6.07;;
64894;SDS011;51588;53.702;10.208;2023-03-01T02:49:21;6.77;;;6.00;;
64894;SDS011;51588;53.702;10.208;2023-03-01T02:51:52;7.90;;;6.40;;
64894;SDS011;51588;53.702;10.208;2023-03-01T02:54:21;9.13;;;5.90;;
64894;SDS011;51588;53.702;10.208;2023-03-01T02:56:48;7.10;;;6.00;;
64894;SDS011;51588;53.702;10.208;2023-03-01T02:59:16;7.10;;;5.60;;
64894;SDS011;51588;53.702;10.208;2023-03-01T03:01:44;6.90;;;5.53;;
64894;SDS011;51588;53.702;10.208;2023-03-01T03:04:19;7.30;;;5.40;;
64894;SDS011;51588;53.702;10.208;2023-03-01T03:06:49;6.67;;;5.60;;
64894;SDS011;51588;53.702;10.208;2023-03-01T03:09:17;6.13;;;5.57;;
64894;SDS011;51588;53.702;10.208;2023-03-01T03:11:43;6.43;;;5.77;;
64894;SDS011;51588;53.702;10.208;2023-03-01T03:14:16;6.20;;;5.60;;
64894;SDS011;51588;53.702;10.208;2023-03-01T03:16:45;6.90;;;5.77;;
64894;SDS011;51588;53.702;10.208;2023-03-01T03:19:15;5.83;;;5.27;;
64894;SDS011;51588;53.702;10.208;2023-03-01T03:21:42;8.80;;;5.63;;
64894;SDS011;51588;53.702;10.208;2023-03-01T03:24:10;6.07;;;5.47;;
64894;SDS011;51588;53.702;10.208;2023-03-01T03:26:37;6.77;;;5.57;;
64894;SDS011;51588;53.702;10.208;2023-03-01T03:29:03;7.80;;;5.57;;
64894;SDS011;51588;53.702;10.208;2023-03-01T03:31:30;8.10;;;5.63;;
64894;SDS011;51588;53.702;10.208;2023-03-01T03:34:00;8.83;;;5.60;;
64894;SDS011;51588;53.702;10.208;2023-03-01T03:36:30;6.30;;;5.40;;
64894;SDS011;51588;53.702;10.208;2023-03-01T03:38:56;6.90;;;5.40;;
64894;SDS011;51588;53.702;10.208;2023-03-01T03:41:26;7.70;;;5.70;;
64894;SDS011;51588;53.702;10.208;2023-03-01T03:44:01;6.37;;;5.30;;
64894;SDS011;51588;53.702;10.208;2023-03-01T03:46:27;6.30;;;5.30;;
64894;SDS011;51588;53.702;10.208;2023-03-01T03:48:56;6.57;;;5.20;;
64894;SDS011;51588;53.702;10.208;2023-03-01T03:51:24;6.10;;;5.50;;
64894;SDS011;51588;53.702;10.208;2023-03-01T03:53:50;9.03;;;5.57;;
64894;SDS011;51588;53.702;10.208;2023-03-01T03:56:19;7.83;;;5.70;;
64894;SDS011;51588;53.702;10.208;2023-03-01T03:58:48;5.47;;;4.87;;
64894;SDS011;51588;53.702;10.208;2023-03-01T04:01:18;6.00;;;5.40;;
64894;SDS011;51588;53.702;10.208;2023-03-01T04:03:44;6.67;;;5.30;;
64894;SDS011;51588;53.702;10.208;2023-03-01T04:06:11;6.07;;;5.47;;
64894;SDS011;51588;53.702;10.208;2023-03-01T04:08:42;5.57;;;5.00;;
64894;SDS011;51588;53.702;10.208;2023-03-01T04:11:12;6.33;;;5.33;;
64894;SDS011;51588;53.702;10.208;2023-03-01T04:14:00;6.00;;;5.40;;
64894;SDS011;51588;53.702;10.208;2023-03-01T04:16:29;6.60;;;5.20;;
64894;SDS011;51588;53.702;10.208;2023-03-01T04:18:55;6.00;;;5.37;;
64894;SDS011;51588;53.702;10.208;2023-03-01T04:21:24;6.30;;;5.10;;
64894;SDS011;51588;53.702;10.208;2023-03-01T04:23:52;6.20;;;5.30;;
64894;SDS011;51588;53.702;10.208;2023-03-01T04:26:19;7.03;;;5.60;;
64894;SDS011;51588;53.702;10.208;2023-03-01T04:28:48;6.30;;;5.30;;
64894;SDS011;51588;53.702;10.208;2023-03-01T04:31:16;6.10;;;5.10;;
64894;SDS011;51588;53.702;10.208;2023-03-01T04:33:46;7.03;;;5.57;;
64894;SDS011;51588;53.702;10.208;2023-03-01T04:36:14;6.40;;;4.90;;
64894;SDS011;51588;53.702;10.208;2023-03-01T04:38:41;7.73;;;5.97;;
64894;SDS011;51588;53.702;10.208;2023-03-01T04:41:11;6.37;;;5.07;;
64894;SDS011;51588;53.702;10.208;2023-03-01T04:43:38;6.13;;;5.23;;
64894;SDS011;51588;53.702;10.208;2023-03-01T04:46:10;6.17;;;4.70;;
64894;SDS011;51588;53.702;10.208;2023-03-01T04:48:38;6.27;;;5.27;;
64894;SDS011;51588;53.702;10.208;2023-03-01T04:51:04;5.80;;;5.13;;
64894;SDS011;51588;53.702;10.208;2023-03-01T04:53:35;6.87;;;5.20;;
64894;SDS011;51588;53.702;10.208;2023-03-01T04:56:02;6.00;;;5.00;;
64894;SDS011;51588;53.702;10.208;2023-03-01T04:58:33;5.67;;;4.60;;
64894;SDS011;51588;53.702;10.208;2023-03-01T05:00:59;6.13;;;4.77;;
64894;SDS011;51588;53.702;10.208;2023-03-01T05:03:26;7.70;;;4.93;;
64894;SDS011;51588;53.702;10.208;2023-03-01T05:05:58;5.80;;;4.97;;
64894;SDS011;51588;53.702;10.208;2023-03-01T05:08:24;6.47;;;4.80;;
64894;SDS011;51588;53.702;10.208;2023-03-01T05:10:52;9.57;;;5.70;;
64894;SDS011;51588;53.702;10.208;2023-03-01T05:13:19;4.97;;;4.20;;
64894;SDS011;51588;53.702;10.208;2023-03-01T05:15:48;5.93;;;4.67;;
64894;SDS011;51588;53.702;10.208;2023-03-01T05:18:15;6.07;;;4.50;;
64894;SDS011;51588;53.702;10.208;2023-03-01T05:20:41;5.43;;;4.53;;
64894;SDS011;51588;53.702;10.208;2023-03-01T05:23:12;7.23;;;4.53;;
64894;SDS011;51588;53.702;10.208;2023-03-01T05:25:38;4.90;;;4.40;;
64894;SDS011;51588;53.702;10.208;2023-03-01T05:28:06;6.37;;;4.83;;
64894;SDS011;51588;53.702;10.208;2023-03-01T05:30:34;6.17;;;4.53;;
64894;SDS011;51588;53.702;10.208;2023-03-01T05:33:02;5.00;;;4.50;;
64894;SDS011;51588;53.702;10.208;2023-03-01T05:35:32;5.37;;;4.23;;
64894;SDS011;51588;53.702;10.208;2023-03-01T05:37:58;5.47;;;4.37;;
64894;SDS011;51588;53.702;10.208;2023-03-01T05:40:27;4.63;;;4.23;;
64894;SDS011;51588;53.702;10.208;2023-03-01T05:42:54;6.50;;;4.77;;
64894;SDS011;51588;53.702;10.208;2023-03-01T05:45:21;6.33;;;4.57;;
64894;SDS011;51588;53.702;10.208;2023-03-01T05:47:48;5.43;;;4.30;;
64894;SDS011;51588;53.702;10.208;2023-03-01T05:50:25;4.77;;;4.00;;
64894;SDS011;51588;53.702;10.208;2023-03-01T05:53:01;4.40;;;4.00;;
64894;SDS011;51588;53.702;10.208;2023-03-01T05:55:29;4.90;;;4.40;;
64894;SDS011;51588;53.702;10.208;2023-03-01T05:57:59;5.97;;;4.30;;
64894;SDS011;51588;53.702;10.208;2023-03-01T06:00:26;4.70;;;4.20;;
64894;SDS011;51588;53.702;10.208;2023-03-01T06:02:58;5.10;;;4.27;;
64894;SDS011;51588;53.702;10.208;2023-03-01T06:05:26;4.93;;;3.90;;
64894;SDS011;51588;53.702;10.208;2023-03-01T06:07:53;5.47;;;3.80;;
64894;SDS011;51588;53.702;10.208;2023-03-01T06:10:20;5.00;;;4.10;;
64894;SDS011;51588;53.702;10.208;2023-03-01T06:12:50;4.47;;;4.00;;
64894;SDS011;51588;53.702;10.208;2023-03-01T06:15:16;7.37;;;4.20;;
64894;SDS011;51588;53.702;10.208;2023-03-01T06:17:43;5.40;;;4.00;;
64894;SDS011;51588;53.702;10.208;2023-03-01T06:20:11;4.37;;;3.70;;
64894;SDS011;51588;53.702;10.208;2023-03-01T06:22:47;4.87;;;3.90;;
64894;SDS011;51588;53.702;10.208;2023-03-01T06:25:18;6.37;;;4.33;;
64894;SDS011;51588;53.702;10.208;2023-03-01T06:27:44;4.73;;;3.57;;
64894;SDS011;51588;53.702;10.208;2023-03-01T06:30:12;5.97;;;4.20;;
64894;SDS011;51588;53.702;10.208;2023-03-01T06:32:39;4.70;;;3.80;;
64894;SDS011;51588;53.702;10.208;2023-03-01T06:35:07;5.10;;;4.00;;
64894;SDS011;51588;53.702;10.208;2023-03-01T06:37:34;6.00;;;4.00;;
64894;SDS011;51588;53.702;10.208;2023-03-01T06:40:01;4.97;;;3.90;;
64894;SDS011;51588;53.702;10.208;2023-03-01T06:42:32;4.80;;;3.60;;
64894;SDS011;51588;53.702;10.208;2023-03-01T06:44:58;4.63;;;4.20;;
64894;SDS011;51588;53.702;10.208;2023-03-01T06:47:25;4.40;;;3.93;;
64894;SDS011;51588;53.702;10.208;2023-03-01T06:49:51;5.40;;;3.90;;
64894;SDS011;51588;53.702;10.208;2023-03-01T06:52:17;5.80;;;4.00;;
64894;SDS011;51588;53.702;10.208;2023-03-01T06:54:44;3.90;;;3.37;;
64894;SDS011;51588;53.702;10.208;2023-03-01T06:57:11;4.17;;;3.77;;
64894;SDS011;51588;53.702;10.208;2023-03-01T06:59:38;7.23;;;3.90;;
64894;SDS011;51588;53.702;10.208;2023-03-01T07:02:04;6.50;;;4.33;;
64894;SDS011;51588;53.702;10.208;2023-03-01T07:04:31;19.50;;;6.63;;
64894;SDS011;51588;53.702;10.208;2023-03-01T07:07:00;16.03;;;6.03;;
64894;SDS011;51588;53.702;10.208;2023-03-01T07:09:27;15.20;;;6.50;;
64894;SDS011;51588;53.702;10.208;2023-03-01T07:11:53;15.00;;;5.70;;
64894;SDS011;51588;53.702;10.208;2023-03-01T07:14:21;13.63;;;5.67;;
64894;SDS011;51588;53.702;10.208;2023-03-01T07:16:49;10.33;;;5.60;;
64894;SDS011;51588;53.702;10.208;2023-03-01T07:19:18;16.50;;;5.73;;
64894;SDS011;51588;53.702;10.208;2023-03-01T07:21:44;8.63;;;5.30;;
64894;SDS011;51588;53.702;10.208;2023-03-01T07:24:11;12.57;;;5.40;;
64894;SDS011;51588;53.702;10.208;2023-03-01T07:26:40;10.43;;;5.00;;
64894;SDS011;51588;53.702;10.208;2023-03-01T07:29:06;20.87;;;6.60;;
64894;SDS011;51588;53.702;10.208;2023-03-01T07:31:34;20.97;;;6.03;;
64894;SDS011;51588;53.702;10.208;2023-03-01T07:34:02;20.93;;;6.00;;
64894;SDS011;51588;53.702;10.208;2023-03-01T07:36:28;24.27;;;6.47;;
64894;SDS011;51588;53.702;10.208;2023-03-01T07:38:54;15.10;;;6.20;;
64894;SDS011;51588;53.702;10.208;2023-03-01T07:41:22;17.27;;;6.37;;
64894;SDS011;51588;53.702;10.208;2023-03-01T07:43:49;21.17;;;7.03;;
64894;SDS011;51588;53.702;10.208;2023-03-01T07:46:18;14.80;;;5.70;;
64894;SDS011;51588;53.702;10.208;2023-03-01T07:48:46;11.37;;;5.30;;
64894;SDS011;51588;53.702;10.208;2023-03-01T07:51:13;11.00;;;5.17;;
64894;SDS011;51588;53.702;10.208;2023-03-01T07:53:39;9.23;;;5.43;;
64894;SDS011;51588;53.702;10.208;2023-03-01T07:56:07;11.57;;;4.70;;
64894;SDS011;51588;53.702;10.208;2023-03-01T07:58:33;13.43;;;5.30;;
64894;SDS011;51588;53.702;10.208;2023-03-01T08:01:03;11.23;;;5.87;;
64894;SDS011;51588;53.702;10.208;2023-03-01T08:03:30;9.63;;;4.80;;
64894;SDS011;51588;53.702;10.208;2023-03-01T08:05:58;10.60;;;4.60;;
64894;SDS011;51588;53.702;10.208;2023-03-01T08:08:25;9.33;;;4.67;;
64894;SDS011;51588;53.702;10.208;2023-03-01T08:10:57;10.17;;;5.30;;
64894;SDS011;51588;53.702;10.208;2023-03-01T08:13:23;10.77;;;4.90;;
64894;SDS011;51588;53.702;10.208;2023-03-01T08:15:50;8.10;;;4.60;;
64894;SDS011;51588;53.702;10.208;2023-03-01T08:18:17;10.13;;;4.53;;
64894;SDS011;51588;53.702;10.208;2023-03-01T08:20:44;8.37;;;4.37;;
64894;SDS011;51588;53.702;10.208;2023-03-01T08:23:12;9.47;;;4.53;;
64894;SDS011;51588;53.702;10.208;2023-03-01T08:25:38;6.50;;;4.33;;
64894;SDS011;51588;53.702;10.208;2023-03-01T08:28:05;8.03;;;4.10;;
64894;SDS011;51588;53.702;10.208;2023-03-01T08:30:31;7.50;;;4.10;;
64894;SDS011;51588;53.702;10.208;2023-03-01T08:32:58;7.60;;;4.93;;
64894;SDS011;51588;53.702;10.208;2023-03-01T08:35:24;10.90;;;5.27;;
64894;SDS011;51588;53.702;10.208;2023-03-01T08:37:50;12.23;;;6.90;;
64894;SDS011;51588;53.702;10.208;2023-03-01T08:40:18;8.57;;;5.90;;
64894;SDS011;51588;53.702;10.208;2023-03-01T08:42:45;9.80;;;5.60;;
64894;SDS011;51588;53.702;10.208;2023-03-01T08:45:14;8.77;;;5.50;;
64894;SDS011;51588;53.702;10.208;2023-03-01T08:47:43;9.37;;;5.67;;
64894;SDS011;51588;53.702;10.208;2023-03-01T08:50:13;13.17;;;5.20;;
64894;SDS011;51588;53.702;10.208;2023-03-01T08:52:39;8.70;;;4.70;;
64894;SDS011;51588;53.702;10.208;2023-03-01T08:55:06;6.87;;;4.93;;
64894;SDS011;51588;53.702;10.208;2023-03-01T08:57:34;7.20;;;4.90;;
64894;SDS011;51588;53.702;10.208;2023-03-01T09:00:01;7.90;;;5.07;;
64894;SDS011;51588;53.702;10.208;2023-03-01T09:02:31;6.63;;;4.47;;
64894;SDS011;51588;53.702;10.208;2023-03-01T09:04:57;7.07;;;4.33;;
64894;SDS011;51588;53.702;10.208;2023-03-01T09:07:24;8.27;;;4.60;;
64894;SDS011;51588;53.702;10.208;2023-03-01T09:09:53;7.27;;;4.80;;
64894;SDS011;51588;53.702;10.208;2023-03-01T09:12:20;6.83;;;4.87;;
64894;SDS011;51588;53.702;10.208;2023-03-01T09:14:47;6.40;;;4.70;;
64894;SDS011;51588;53.702;10.208;2023-03-01T09:17:14;8.03;;;4.23;;
64894;SDS011;51588;53.702;10.208;2023-03-01T09:19:40;9.53;;;5.20;;
64894;SDS011;51588;53.702;10.208;2023-03-01T09:22:13;8.20;;;4.90;;
64894;SDS011;51588;53.702;10.208;2023-03-01T09:24:39;6.13;;;4.60;;
64894;SDS011;51588;53.702;10.208;2023-03-01T09:27:08;5.10;;;3.83;;
64894;SDS011;51588;53.702;10.208;2023-03-01T09:29:39;5.50;;;4.80;;
64894;SDS011;51588;53.702;10.208;2023-03-01T09:32:07;7.50;;;4.20;;
64894;SDS011;51588;53.702;10.208;2023-03-01T09:34:34;6.07;;;3.97;;
64894;SDS011;51588;53.702;10.208;2023-03-01T09:37:21;6.83;;;4.30;;
64894;SDS011;51588;53.702;10.208;2023-03-01T09:39:47;7.33;;;4.43;;
64894;SDS011;51588;53.702;10.208;2023-03-01T09:42:17;6.37;;;3.80;;
64894;SDS011;51588;53.702;10.208;2023-03-01T09:44:44;6.07;;;4.30;;
64894;SDS011;51588;53.702;10.208;2023-03-01T09:47:17;4.23;;;3.83;;
64894;SDS011;51588;53.702;10.208;2023-03-01T09:49:45;6.60;;;4.40;;
64894;SDS011;51588;53.702;10.208;2023-03-01T09:52:23;5.30;;;3.90;;
64894;SDS011;51588;53.702;10.208;2023-03-01T09:54:52;5.37;;;3.73;;
64894;SDS011;51588;53.702;10.208;2023-03-01T09:57:26;4.97;;;4.03;;
64894;SDS011;51588;53.702;10.208;2023-03-01T09:59:57;5.03;;;3.70;;
64894;SDS011;51588;53.702;10.208;2023-03-01T10:02:31;6.10;;;3.90;;
64894;SDS011;51588;53.702;10.208;2023-03-01T10:05:03;6.00;;;3.90;;
64894;SDS011;51588;53.702;10.208;2023-03-01T10:07:32;5.63;;;3.70;;
64894;SDS011;51588;53.702;10.208;2023-03-01T10:10:00;5.50;;;3.60;;
64894;SDS011;51588;53.702;10.208;2023-03-01T10:12:31;6.50;;;4.00;;
64894;SDS011;51588;53.702;10.208;2023-03-01T10:15:00;4.70;;;3.40;;
64894;SDS011;51588;53.702;10.208;2023-03-01T10:17:35;3.90;;;3.23;;
64894;SDS011;51588;53.702;10.208;2023-03-01T10:20:18;5.27;;;3.70;;
64894;SDS011;51588;53.702;10.208;2023-03-01T10:22:45;4.50;;;3.80;;
64894;SDS011;51588;53.702;10.208;2023-03-01T10:25:15;6.23;;;3.67;;
64894;SDS011;51588;53.702;10.208;2023-03-01T10:27:44;5.40;;;3.40;;
64894;SDS011;51588;53.702;10.208;2023-03-01T10:30:16;7.13;;;3.10;;
64894;SDS011;51588;53.702;10.208;2023-03-01T10:32:47;4.30;;;3.37;;
64894;SDS011;51588;53.702;10.208;2023-03-01T10:35:16;6.83;;;3.30;;
64894;SDS011;51588;53.702;10.208;2023-03-01T10:37:46;7.20;;;4.10;;
64894;SDS011;51588;53.702;10.208;2023-03-01T10:40:22;5.27;;;3.57;;
64894;SDS011;51588;53.702;10.208;2023-03-01T10:42:51;4.90;;;3.73;;
64894;SDS011;51588;53.702;10.208;2023-03-01T10:45:26;5.57;;;3.70;;
64894;SDS011;51588;53.702;10.208;2023-03-01T10:48:04;5.57;;;3.20;;
64894;SDS011;51588;53.702;10.208;2023-03-01T10:50:30;5.00;;;3.67;;
64894;SDS011;51588;53.702;10.208;2023-03-01T10:52:58;3.70;;;2.90;;
64894;SDS011;51588;53.702;10.208;2023-03-01T10:55:26;6.90;;;3.43;;
64894;SDS011;51588;53.702;10.208;2023-03-01T10:58:05;5.23;;;2.97;;
64894;SDS011;51588;53.702;10.208;2023-03-01T11:00:32;4.13;;;3.20;;
64894;SDS011;51588;53.702;10.208;2023-03-01T11:03:12;3.40;;;2.60;;
64894;SDS011;51588;53.702;10.208;2023-03-01T11:05:50;3.93;;;2.93;;
64894;SDS011;51588;53.702;10.208;2023-03-01T11:08:26;4.13;;;3.50;;
64894;SDS011;51588;53.702;10.208;2023-03-01T11:11:01;4.23;;;2.97;;
64894;SDS011;51588;53.702;10.208;2023-03-01T11:13:32;3.90;;;2.93;;
64894;SDS011;51588;53.702;10.208;2023-03-01T11:16:00;4.93;;;3.13;;
64894;SDS011;51588;53.702;10.208;2023-03-01T11:18:31;3.40;;;2.87;;
64894;SDS011;51588;53.702;10.208;2023-03-01T11:20:58;4.00;;;2.83;;
64894;SDS011;51588;53.702;10.208;2023-03-01T11:23:25;4.03;;;3.17;;
64894;SDS011;51588;53.702;10.208;2023-03-01T11:25:54;3.00;;;2.70;;
64894;SDS011;51588;53.702;10.208;2023-03-01T11:28:22;4.97;;;3.87;;
64894;SDS011;51588;53.702;10.208;2023-03-01T11:30:50;8.80;;;7.13;;
64894;SDS011;51588;53.702;10.208;2023-03-01T11:33:23;8.10;;;5.23;;
64894;SDS011;51588;53.702;10.208;2023-03-01T11:35:55;5.13;;;4.53;;
64894;SDS011;51588;53.702;10.208;2023-03-01T11:38:24;4.77;;;4.13;;
64894;SDS011;51588;53.702;10.208;2023-03-01T11:40:52;5.60;;;3.97;;
64894;SDS011;51588;53.702;10.208;2023-03-01T11:43:26;5.07;;;3.63;;
64894;SDS011;51588;53.702;10.208;2023-03-01T11:48:57;5.63;;;3.63;;
64894;SDS011;51588;53.702;10.208;2023-03-01T11:51:33;3.87;;;3.33;;
64894;SDS011;51588;53.702;10.208;2023-03-01T11:54:06;3.50;;;2.73;;
64894;SDS011;51588;53.702;10.208;2023-03-01T11:56:41;3.27;;;2.90;;
64894;SDS011;51588;53.702;10.208;2023-03-01T11:59:20;3.17;;;2.87;;
64894;SDS011;51588;53.702;10.208;2023-03-01T12:01:55;3.77;;;2.80;;
64894;SDS011;51588;53.702;10.208;2023-03-01T12:04:32;4.00;;;2.90;;
64894;SDS011;51588;53.702;10.208;2023-03-01T12:07:01;2.90;;;2.57;;
64894;SDS011;51588;53.702;10.208;2023-03-01T12:09:31;4.20;;;2.97;;
64894;SDS011;51588;53.702;10.208;2023-03-01T12:14:55;4.00;;;2.60;;
64894;SDS011;51588;53.702;10.208;2023-03-01T12:20:15;3.10;;;2.80;;
64894;SDS011;51588;53.702;10.208;2023-03-01T12:22:47;2.97;;;2.67;;
64894;SDS011;51588;53.702;10.208;2023-03-01T12:25:27;4.33;;;2.70;;
64894;SDS011;51588;53.702;10.208;2023-03-01T12:30:47;2.90;;;2.50;;
64894;SDS011;51588;53.702;10.208;2023-03-01T12:33:21;2.70;;;2.50;;
64894;SDS011;51588;53.702;10.208;2023-03-01T12:36:09;2.60;;;2.33;;
64894;SDS011;51588;53.702;10.208;2023-03-01T12:38:42;2.70;;;2.40;;
64894;SDS011;51588;53.702;10.208;2023-03-01T12:41:15;3.20;;;2.40;;
64894;SDS011;51588;53.702;10.208;2023-03-01T12:43:48;2.57;;;2.37;;
64894;SDS011;51588;53.702;10.208;2023-03-01T12:46:25;2.90;;;2.27;;
64894;SDS011;51588;53.702;10.208;2023-03-01T12:48:55;2.73;;;2.20;;
64894;SDS011;51588;53.702;10.208;2023-03-01T12:51:26;3.83;;;2.50;;
64894;SDS011;51588;53.702;10.208;2023-03-01T12:53:54;3.10;;;2.40;;
64894;SDS011;51588;53.702;10.208;2023-03-01T12:56:22;2.80;;;2.50;;
64894;SDS011;51588;53.702;10.208;2023-03-01T12:58:51;2.50;;;2.30;;
64894;SDS011;51588;53.702;10.208;2023-03-01T13:01:22;3.43;;;3.00;;
64894;SDS011;51588;53.702;10.208;2023-03-01T13:04:03;2.40;;;2.20;;
64894;SDS011;51588;53.702;10.208;2023-03-01T13:06:32;2.80;;;2.30;;
64894;SDS011;51588;53.702;10.208;2023-03-01T13:09:06;3.03;;;2.53;;
64894;SDS011;51588;53.702;10.208;2023-03-01T13:11:35;2.83;;;2.47;;
64894;SDS011;51588;53.702;10.208;2023-03-01T13:16:46;3.30;;;2.77;;
64894;SDS011;51588;53.702;10.208;2023-03-01T13:19:15;2.90;;;2.60;;
64894;SDS011;51588;53.702;10.208;2023-03-01T13:21:42;3.83;;;2.60;;
64894;SDS011;51588;53.702;10.208;2023-03-01T13:24:33;3.03;;;2.57;;
64894;SDS011;51588;53.702;10.208;2023-03-01T13:27:11;4.60;;;2.90;;
64894;SDS011;51588;53.702;10.208;2023-03-01T13:29:44;4.13;;;2.70;;
64894;SDS011;51588;53.702;10.208;2023-03-01T13:32:19;4.10;;;2.70;;
64894;SDS011;51588;53.702;10.208;2023-03-01T13:34:52;3.37;;;2.63;;
64894;SDS011;51588;53.702;10.208;2023-03-01T13:37:20;3.90;;;2.67;;
64894;SDS011;51588;53.702;10.208;2023-03-01T13:39:48;2.87;;;2.63;;
64894;SDS011;51588;53.702;10.208;2023-03-01T13:42:31;3.73;;;2.70;;
64894;SDS011;51588;53.702;10.208;2023-03-01T13:45:01;3.33;;;2.60;;
64894;SDS011;51588;53.702;10.208;2023-03-01T13:47:28;3.17;;;2.87;;
64894;SDS011;51588;53.702;10.208;2023-03-01T13:49:55;2.70;;;2.50;;
64894;SDS011;51588;53.702;10.208;2023-03-01T13:52:32;4.60;;;2.70;;
64894;SDS011;51588;53.702;10.208;2023-03-01T13:55:05;3.67;;;2.67;;
64894;SDS011;51588;53.702;10.208;2023-03-01T13:57:33;2.83;;;2.63;;
64894;SDS011;51588;53.702;10.208;2023-03-01T14:00:00;2.53;;;2.33;;
64894;SDS011;51588;53.702;10.208;2023-03-01T14:02:27;4.10;;;2.60;;
64894;SDS011;51588;53.702;10.208;2023-03-01T14:04:56;2.70;;;2.50;;
64894;SDS011;51588;53.702;10.208;2023-03-01T14:07:23;2.50;;;2.30;;
64894;SDS011;51588;53.702;10.208;2023-03-01T14:09:51;3.20;;;2.60;;
64894;SDS011;51588;53.702;10.208;2023-03-01T14:12:23;3.77;;;3.07;;
64894;SDS011;51588;53.702;10.208;2023-03-01T14:14:56;2.93;;;2.50;;
64894;SDS011;51588;53.702;10.208;2023-03-01T14:17:34;2.60;;;2.40;;
64894;SDS011;51588;53.702;10.208;2023-03-01T14:20:07;4.93;;;2.93;;
64894;SDS011;51588;53.702;10.208;2023-03-01T14:22:34;5.37;;;2.67;;
64894;SDS011;51588;53.702;10.208;2023-03-01T14:25:02;3.10;;;2.80;;
64894;SDS011;51588;53.702;10.208;2023-03-01T14:27:32;5.07;;;3.03;;
64894;SDS011;51588;53.702;10.208;2023-03-01T14:30:00;2.93;;;2.60;;
64894;SDS011;51588;53.702;10.208;2023-03-01T14:32:27;3.77;;;2.50;;
64894;SDS011;51588;53.702;10.208;2023-03-01T14:34:54;4.53;;;3.37;;
64894;SDS011;51588;53.702;10.208;2023-03-01T14:37:22;3.03;;;2.73;;
64894;SDS011;51588;53.702;10.208;2023-03-01T14:39:49;4.70;;;2.70;;
64894;SDS011;51588;53.702;10.208;2023-03-01T14:42:15;2.97;;;2.67;;
64894;SDS011;51588;53.702;10.208;2023-03-01T14:44:45;3.10;;;2.80;;
64894;SDS011;51588;53.702;10.208;2023-03-01T14:47:16;4.10;;;2.80;;
64894;SDS011;51588;53.702;10.208;2023-03-01T14:49:45;3.00;;;2.67;;
64894;SDS011;51588;53.702;10.208;2023-03-01T14:52:17;3.37;;;3.00;;
64894;SDS011;51588;53.702;10.208;2023-03-01T14:54:44;3.60;;;2.67;;
64894;SDS011;51588;53.702;10.208;2023-03-01T14:57:13;3.10;;;2.80;;
64894;SDS011;51588;53.702;10.208;2023-03-01T14:59:40;3.23;;;2.93;;